sensor_id;sensor_type;location;lat;lon;timestamp;P1;durP1;ratioP1;P2;durP2;ratioP2
75496;SDS011;64074;47.540;19.072;2024-03-07T00:00:13;12.65;;;6.63;;
75496;SDS011;64074;47.540;19.072;2024-03-07T00:03:36;12.75;;;6.45;;
75496;SDS011;64074;47.540;19.072;2024-03-07T00:06:52;12.50;;;6.63;;
75496;SDS011;64074;47.540;19.072;2024-03-07T00:10:08;12.83;;;6.80;;
75496;SDS011;64074;47.540;19.072;2024-03-07T00:13:38;12.38;;;6.53;;
75496;SDS011;64074;47.540;19.072;2024-03-07T00:16:56;13.77;;;6.47;;
75496;SDS011;64074;47.540;19.072;2024-03-07T00:20:10;12.57;;;6.28;;
75496;SDS011;64074;47.540;19.072;2024-03-07T00:23:37;12.02;;;6.32;;
75496;SDS011;64074;47.540;19.072;2024-03-07T00:27:05;11.80;;;6.33;;
75496;SDS011;64074;47.540;19.072;2024-03-07T00:30:30;12.57;;;6.22;;
75496;SDS011;64074;47.540;19.072;2024-03-07T00:33:41;12.30;;;6.60;;
75496;SDS011;64074;47.540;19.072;2024-03-07T00:37:21;12.13;;;6.28;;
75496;SDS011;64074;47.540;19.072;2024-03-07T00:40:32;12.55;;;6.57;;
75496;SDS011;64074;47.540;19.072;2024-03-07T00:44:01;12.67;;;7.00;;
75496;SDS011;64074;47.540;19.072;2024-03-07T00:47:25;13.35;;;6.90;;
75496;SDS011;64074;47.540;19.072;2024-03-07T00:50:47;11.38;;;6.22;;
75496;SDS011;64074;47.540;19.072;2024-03-07T00:54:08;11.30;;;5.78;;
75496;SDS011;64074;47.540;19.072;2024-03-07T00:57:27;11.25;;;5.90;;
75496;SDS011;64074;47.540;19.072;2024-03-07T01:00:37;9.27;;;5.73;;
75496;SDS011;64074;47.540;19.072;2024-03-07T01:03:51;10.88;;;5.75;;
75496;SDS011;64074;47.540;19.072;2024-03-07T01:07:02;11.57;;;5.88;;
75496;SDS011;64074;47.540;19.072;2024-03-07T01:10:06;10.80;;;5.63;;
75496;SDS011;64074;47.540;19.072;2024-03-07T01:13:12;11.52;;;6.03;;
75496;SDS011;64074;47.540;19.072;2024-03-07T01:16:28;11.20;;;5.87;;
75496;SDS011;64074;47.540;19.072;2024-03-07T01:19:37;11.57;;;5.93;;
75496;SDS011;64074;47.540;19.072;2024-03-07T01:22:47;11.30;;;5.90;;
75496;SDS011;64074;47.540;19.072;2024-03-07T01:25:57;10.60;;;5.60;;
75496;SDS011;64074;47.540;19.072;2024-03-07T01:29:32;10.52;;;5.53;;
75496;SDS011;64074;47.540;19.072;2024-03-07T01:32:56;9.53;;;5.23;;
75496;SDS011;64074;47.540;19.072;2024-03-07T01:36:14;12.38;;;5.95;;
75496;SDS011;64074;47.540;19.072;2024-03-07T01:39:25;11.35;;;5.60;;
75496;SDS011;64074;47.540;19.072;2024-03-07T01:43:03;8.95;;;5.28;;
75496;SDS011;64074;47.540;19.072;2024-03-07T01:46:24;9.50;;;5.03;;
75496;SDS011;64074;47.540;19.072;2024-03-07T01:49:47;11.80;;;5.33;;
75496;SDS011;64074;47.540;19.072;2024-03-07T01:53:09;8.82;;;4.95;;
75496;SDS011;64074;47.540;19.072;2024-03-07T01:56:28;10.43;;;5.30;;
75496;SDS011;64074;47.540;19.072;2024-03-07T01:59:50;10.85;;;5.10;;
75496;SDS011;64074;47.540;19.072;2024-03-07T02:03:15;9.50;;;4.90;;
75496;SDS011;64074;47.540;19.072;2024-03-07T02:06:35;9.00;;;4.63;;
75496;SDS011;64074;47.540;19.072;2024-03-07T02:09:59;8.88;;;4.80;;
75496;SDS011;64074;47.540;19.072;2024-03-07T02:13:19;8.77;;;5.00;;
75496;SDS011;64074;47.540;19.072;2024-03-07T02:16:40;9.65;;;4.82;;
75496;SDS011;64074;47.540;19.072;2024-03-07T02:20:02;8.77;;;4.88;;
75496;SDS011;64074;47.540;19.072;2024-03-07T02:23:26;9.53;;;4.37;;
75496;SDS011;64074;47.540;19.072;2024-03-07T02:26:53;7.55;;;4.43;;
75496;SDS011;64074;47.540;19.072;2024-03-07T02:30:12;8.95;;;4.65;;
75496;SDS011;64074;47.540;19.072;2024-03-07T02:33:39;10.10;;;4.85;;
75496;SDS011;64074;47.540;19.072;2024-03-07T02:36:53;7.57;;;4.07;;
75496;SDS011;64074;47.540;19.072;2024-03-07T02:40:13;8.43;;;4.60;;
75496;SDS011;64074;47.540;19.072;2024-03-07T02:43:37;9.10;;;4.40;;
75496;SDS011;64074;47.540;19.072;2024-03-07T02:46:57;8.70;;;4.55;;
75496;SDS011;64074;47.540;19.072;2024-03-07T02:50:11;7.55;;;4.20;;
75496;SDS011;64074;47.540;19.072;2024-03-07T02:53:19;7.65;;;4.38;;
75496;SDS011;64074;47.540;19.072;2024-03-07T02:56:28;7.43;;;4.03;;
75496;SDS011;64074;47.540;19.072;2024-03-07T02:59:38;7.63;;;4.28;;
75496;SDS011;64074;47.540;19.072;2024-03-07T03:02:48;8.60;;;4.28;;
75496;SDS011;64074;47.540;19.072;2024-03-07T03:06:11;7.18;;;3.78;;
75496;SDS011;64074;47.540;19.072;2024-03-07T03:09:22;7.13;;;3.90;;
75496;SDS011;64074;47.540;19.072;2024-03-07T03:12:28;7.33;;;3.90;;
75496;SDS011;64074;47.540;19.072;2024-03-07T03:15:39;8.40;;;4.65;;
75496;SDS011;64074;47.540;19.072;2024-03-07T03:18:43;7.63;;;4.03;;
75496;SDS011;64074;47.540;19.072;2024-03-07T03:21:47;7.68;;;4.15;;
75496;SDS011;64074;47.540;19.072;2024-03-07T03:24:54;6.47;;;3.72;;
75496;SDS011;64074;47.540;19.072;2024-03-07T03:28:05;7.77;;;4.20;;
75496;SDS011;64074;47.540;19.072;2024-03-07T03:31:25;7.82;;;4.30;;
75496;SDS011;64074;47.540;19.072;2024-03-07T03:34:38;6.93;;;4.13;;
75496;SDS011;64074;47.540;19.072;2024-03-07T03:37:50;8.68;;;4.00;;
75496;SDS011;64074;47.540;19.072;2024-03-07T03:41:00;7.63;;;4.03;;
75496;SDS011;64074;47.540;19.072;2024-03-07T03:44:22;7.63;;;4.47;;
75496;SDS011;64074;47.540;19.072;2024-03-07T03:47:41;8.88;;;4.20;;
75496;SDS011;64074;47.540;19.072;2024-03-07T03:51:06;7.53;;;4.15;;
75496;SDS011;64074;47.540;19.072;2024-03-07T03:54:33;7.35;;;3.78;;
75496;SDS011;64074;47.540;19.072;2024-03-07T03:57:45;7.35;;;3.78;;
75496;SDS011;64074;47.540;19.072;2024-03-07T04:01:03;6.27;;;3.60;;
75496;SDS011;64074;47.540;19.072;2024-03-07T04:04:33;7.97;;;4.00;;
75496;SDS011;64074;47.540;19.072;2024-03-07T04:07:49;14.23;;;7.13;;
75496;SDS011;64074;47.540;19.072;2024-03-07T04:11:05;7.53;;;4.00;;
75496;SDS011;64074;47.540;19.072;2024-03-07T04:14:44;6.90;;;3.90;;
75496;SDS011;64074;47.540;19.072;2024-03-07T04:18:08;8.00;;;3.87;;
75496;SDS011;64074;47.540;19.072;2024-03-07T04:21:26;7.75;;;3.85;;
75496;SDS011;64074;47.540;19.072;2024-03-07T04:24:36;8.35;;;4.20;;
75496;SDS011;64074;47.540;19.072;2024-03-07T04:28:08;6.90;;;3.70;;
75496;SDS011;64074;47.540;19.072;2024-03-07T04:31:29;8.35;;;4.65;;
75496;SDS011;64074;47.540;19.072;2024-03-07T04:34:34;8.40;;;4.67;;
75496;SDS011;64074;47.540;19.072;2024-03-07T04:37:40;6.22;;;3.72;;
75496;SDS011;64074;47.540;19.072;2024-03-07T04:40:49;7.63;;;3.67;;
75496;SDS011;64074;47.540;19.072;2024-03-07T04:44:05;8.32;;;4.70;;
75496;SDS011;64074;47.540;19.072;2024-03-07T04:47:29;7.45;;;3.28;;
75496;SDS011;64074;47.540;19.072;2024-03-07T04:50:52;7.50;;;3.93;;
75496;SDS011;64074;47.540;19.072;2024-03-07T04:54:02;7.93;;;4.35;;
75496;SDS011;64074;47.540;19.072;2024-03-07T04:57:43;9.73;;;6.30;;
75496;SDS011;64074;47.540;19.072;2024-03-07T05:00:59;7.25;;;4.03;;
75496;SDS011;64074;47.540;19.072;2024-03-07T05:04:09;8.75;;;4.40;;
75496;SDS011;64074;47.540;19.072;2024-03-07T05:07:40;7.67;;;3.97;;
75496;SDS011;64074;47.540;19.072;2024-03-07T05:10:44;6.97;;;3.80;;
75496;SDS011;64074;47.540;19.072;2024-03-07T05:13:51;9.13;;;4.22;;
75496;SDS011;64074;47.540;19.072;2024-03-07T05:17:01;7.65;;;4.03;;
75496;SDS011;64074;47.540;19.072;2024-03-07T05:20:15;8.93;;;4.57;;
75496;SDS011;64074;47.540;19.072;2024-03-07T05:23:35;7.67;;;4.40;;
75496;SDS011;64074;47.540;19.072;2024-03-07T05:26:47;8.80;;;4.15;;
75496;SDS011;64074;47.540;19.072;2024-03-07T05:29:51;8.75;;;3.95;;
75496;SDS011;64074;47.540;19.072;2024-03-07T05:33:00;6.65;;;4.15;;
75496;SDS011;64074;47.540;19.072;2024-03-07T05:36:22;6.85;;;3.65;;
75496;SDS011;64074;47.540;19.072;2024-03-07T05:39:44;7.07;;;4.03;;
75496;SDS011;64074;47.540;19.072;2024-03-07T05:43:11;6.88;;;3.60;;
75496;SDS011;64074;47.540;19.072;2024-03-07T05:46:32;6.47;;;3.90;;
75496;SDS011;64074;47.540;19.072;2024-03-07T05:49:54;8.88;;;4.20;;
75496;SDS011;64074;47.540;19.072;2024-03-07T05:53:04;8.88;;;3.75;;
75496;SDS011;64074;47.540;19.072;2024-03-07T05:56:20;9.23;;;4.47;;
75496;SDS011;64074;47.540;19.072;2024-03-07T05:59:36;8.75;;;4.28;;
75496;SDS011;64074;47.540;19.072;2024-03-07T06:03:13;8.57;;;4.45;;
75496;SDS011;64074;47.540;19.072;2024-03-07T06:06:42;7.97;;;4.20;;
75496;SDS011;64074;47.540;19.072;2024-03-07T06:10:05;9.65;;;4.45;;
75496;SDS011;64074;47.540;19.072;2024-03-07T06:13:21;6.83;;;3.70;;
75496;SDS011;64074;47.540;19.072;2024-03-07T06:16:37;7.90;;;4.15;;
75496;SDS011;64074;47.540;19.072;2024-03-07T06:19:54;7.70;;;4.20;;
75496;SDS011;64074;47.540;19.072;2024-03-07T06:23:25;6.82;;;3.80;;
75496;SDS011;64074;47.540;19.072;2024-03-07T06:26:42;8.07;;;3.75;;
75496;SDS011;64074;47.540;19.072;2024-03-07T06:30:04;7.03;;;4.07;;
75496;SDS011;64074;47.540;19.072;2024-03-07T06:33:19;7.53;;;4.03;;
75496;SDS011;64074;47.540;19.072;2024-03-07T06:36:35;8.48;;;4.78;;
75496;SDS011;64074;47.540;19.072;2024-03-07T06:39:55;7.28;;;4.28;;
75496;SDS011;64074;47.540;19.072;2024-03-07T06:43:11;7.82;;;3.88;;
75496;SDS011;64074;47.540;19.072;2024-03-07T06:46:30;8.50;;;3.90;;
75496;SDS011;64074;47.540;19.072;2024-03-07T06:50:05;11.88;;;5.95;;
75496;SDS011;64074;47.540;19.072;2024-03-07T06:53:48;8.02;;;4.07;;
75496;SDS011;64074;47.540;19.072;2024-03-07T06:57:02;8.98;;;4.18;;
75496;SDS011;64074;47.540;19.072;2024-03-07T07:00:15;8.52;;;4.97;;
75496;SDS011;64074;47.540;19.072;2024-03-07T07:03:32;6.73;;;4.23;;
75496;SDS011;64074;47.540;19.072;2024-03-07T07:06:45;6.60;;;3.75;;
75496;SDS011;64074;47.540;19.072;2024-03-07T07:09:56;7.22;;;4.38;;
75496;SDS011;64074;47.540;19.072;2024-03-07T07:13:09;6.57;;;4.28;;
75496;SDS011;64074;47.540;19.072;2024-03-07T07:16:20;12.55;;;5.95;;
75496;SDS011;64074;47.540;19.072;2024-03-07T07:19:50;8.17;;;3.73;;
75496;SDS011;64074;47.540;19.072;2024-03-07T07:23:11;9.10;;;4.10;;
75496;SDS011;64074;47.540;19.072;2024-03-07T07:26:27;6.13;;;3.47;;
75496;SDS011;64074;47.540;19.072;2024-03-07T07:29:38;7.68;;;4.47;;
75496;SDS011;64074;47.540;19.072;2024-03-07T07:33:12;7.18;;;4.22;;
75496;SDS011;64074;47.540;19.072;2024-03-07T07:36:24;9.20;;;4.30;;
75496;SDS011;64074;47.540;19.072;2024-03-07T07:39:53;6.85;;;4.22;;
75496;SDS011;64074;47.540;19.072;2024-03-07T07:42:58;6.93;;;3.80;;
75496;SDS011;64074;47.540;19.072;2024-03-07T07:46:12;7.63;;;4.18;;
75496;SDS011;64074;47.540;19.072;2024-03-07T07:49:24;10.85;;;4.97;;
75496;SDS011;64074;47.540;19.072;2024-03-07T07:52:41;8.97;;;4.50;;
75496;SDS011;64074;47.540;19.072;2024-03-07T07:56:05;8.75;;;4.28;;
75496;SDS011;64074;47.540;19.072;2024-03-07T07:59:35;6.88;;;4.20;;
75496;SDS011;64074;47.540;19.072;2024-03-07T08:03:03;7.28;;;4.22;;
75496;SDS011;64074;47.540;19.072;2024-03-07T08:06:23;5.35;;;3.35;;
75496;SDS011;64074;47.540;19.072;2024-03-07T08:09:31;5.87;;;3.73;;
75496;SDS011;64074;47.540;19.072;2024-03-07T08:12:42;6.38;;;4.28;;
75496;SDS011;64074;47.540;19.072;2024-03-07T08:15:57;6.25;;;4.18;;
75496;SDS011;64074;47.540;19.072;2024-03-07T08:19:03;7.30;;;3.83;;
75496;SDS011;64074;47.540;19.072;2024-03-07T08:22:10;8.20;;;4.25;;
75496;SDS011;64074;47.540;19.072;2024-03-07T08:25:16;8.23;;;5.57;;
75496;SDS011;64074;47.540;19.072;2024-03-07T08:28:24;8.35;;;4.00;;
75496;SDS011;64074;47.540;19.072;2024-03-07T08:31:31;6.15;;;3.72;;
75496;SDS011;64074;47.540;19.072;2024-03-07T08:34:42;5.78;;;3.80;;
75496;SDS011;64074;47.540;19.072;2024-03-07T08:37:55;6.50;;;3.80;;
75496;SDS011;64074;47.540;19.072;2024-03-07T08:44:47;7.32;;;4.32;;
75496;SDS011;64074;47.540;19.072;2024-03-07T08:48:15;7.40;;;3.92;;
75496;SDS011;64074;47.540;19.072;2024-03-07T08:51:41;6.45;;;3.90;;
75496;SDS011;64074;47.540;19.072;2024-03-07T08:55:26;8.77;;;4.03;;
75496;SDS011;64074;47.540;19.072;2024-03-07T08:58:43;5.17;;;3.63;;
75496;SDS011;64074;47.540;19.072;2024-03-07T09:02:05;5.68;;;3.63;;
75496;SDS011;64074;47.540;19.072;2024-03-07T09:05:12;7.45;;;4.30;;
75496;SDS011;64074;47.540;19.072;2024-03-07T09:08:26;7.88;;;4.15;;
75496;SDS011;64074;47.540;19.072;2024-03-07T09:12:13;7.20;;;3.80;;
75496;SDS011;64074;47.540;19.072;2024-03-07T09:15:35;10.10;;;4.57;;
75496;SDS011;64074;47.540;19.072;2024-03-07T09:18:59;12.05;;;4.43;;
75496;SDS011;64074;47.540;19.072;2024-03-07T09:22:14;6.50;;;4.22;;
75496;SDS011;64074;47.540;19.072;2024-03-07T09:25:26;7.00;;;3.70;;
75496;SDS011;64074;47.540;19.072;2024-03-07T09:29:19;6.28;;;4.05;;
75496;SDS011;64074;47.540;19.072;2024-03-07T09:32:41;6.17;;;3.70;;
75496;SDS011;64074;47.540;19.072;2024-03-07T09:35:53;8.93;;;4.20;;
75496;SDS011;64074;47.540;19.072;2024-03-07T09:39:06;7.93;;;4.68;;
75496;SDS011;64074;47.540;19.072;2024-03-07T09:42:37;5.85;;;3.85;;
75496;SDS011;64074;47.540;19.072;2024-03-07T09:46:24;8.85;;;4.88;;
75496;SDS011;64074;47.540;19.072;2024-03-07T09:49:45;8.67;;;4.20;;
75496;SDS011;64074;47.540;19.072;2024-03-07T09:52:58;7.03;;;4.43;;
75496;SDS011;64074;47.540;19.072;2024-03-07T09:56:16;9.40;;;4.70;;
75496;SDS011;64074;47.540;19.072;2024-03-07T09:59:34;7.28;;;4.30;;
75496;SDS011;64074;47.540;19.072;2024-03-07T10:02:55;7.35;;;4.57;;
75496;SDS011;64074;47.540;19.072;2024-03-07T10:06:40;7.83;;;4.33;;
75496;SDS011;64074;47.540;19.072;2024-03-07T10:10:03;8.85;;;4.85;;
75496;SDS011;64074;47.540;19.072;2024-03-07T10:13:24;7.20;;;4.72;;
75496;SDS011;64074;47.540;19.072;2024-03-07T10:16:30;7.28;;;5.00;;
75496;SDS011;64074;47.540;19.072;2024-03-07T10:19:36;8.77;;;5.43;;
75496;SDS011;64074;47.540;19.072;2024-03-07T10:22:44;9.83;;;5.80;;
75496;SDS011;64074;47.540;19.072;2024-03-07T10:25:53;10.52;;;5.70;;
75496;SDS011;64074;47.540;19.072;2024-03-07T10:29:07;10.63;;;5.63;;
75496;SDS011;64074;47.540;19.072;2024-03-07T10:32:24;8.57;;;5.30;;
75496;SDS011;64074;47.540;19.072;2024-03-07T10:35:41;7.40;;;4.60;;
75496;SDS011;64074;47.540;19.072;2024-03-07T10:39:01;8.43;;;5.03;;
75496;SDS011;64074;47.540;19.072;2024-03-07T10:42:34;7.43;;;4.53;;
75496;SDS011;64074;47.540;19.072;2024-03-07T10:46:04;8.00;;;4.60;;
75496;SDS011;64074;47.540;19.072;2024-03-07T10:50:39;8.90;;;5.07;;
75496;SDS011;64074;47.540;19.072;2024-03-07T10:54:12;11.52;;;5.10;;
75496;SDS011;64074;47.540;19.072;2024-03-07T10:57:49;7.70;;;5.20;;
75496;SDS011;64074;47.540;19.072;2024-03-07T11:01:11;9.32;;;4.82;;
75496;SDS011;64074;47.540;19.072;2024-03-07T11:04:25;14.60;;;5.68;;
75496;SDS011;64074;47.540;19.072;2024-03-07T11:07:43;6.75;;;4.68;;
75496;SDS011;64074;47.540;19.072;2024-03-07T11:10:53;8.68;;;5.10;;
75496;SDS011;64074;47.540;19.072;2024-03-07T11:14:04;8.87;;;5.30;;
75496;SDS011;64074;47.540;19.072;2024-03-07T11:17:26;8.52;;;5.05;;
75496;SDS011;64074;47.540;19.072;2024-03-07T11:20:59;10.60;;;5.32;;
75496;SDS011;64074;47.540;19.072;2024-03-07T11:24:27;8.07;;;5.28;;
75496;SDS011;64074;47.540;19.072;2024-03-07T11:27:56;7.60;;;4.88;;
75496;SDS011;64074;47.540;19.072;2024-03-07T11:31:27;8.70;;;4.87;;
75496;SDS011;64074;47.540;19.072;2024-03-07T11:34:48;8.68;;;4.85;;
75496;SDS011;64074;47.540;19.072;2024-03-07T11:38:02;9.25;;;5.28;;
75496;SDS011;64074;47.540;19.072;2024-03-07T11:41:18;10.52;;;5.25;;
75496;SDS011;64074;47.540;19.072;2024-03-07T11:44:31;10.27;;;6.07;;
75496;SDS011;64074;47.540;19.072;2024-03-07T11:47:45;12.70;;;6.27;;
75496;SDS011;64074;47.540;19.072;2024-03-07T11:51:01;8.27;;;5.15;;
75496;SDS011;64074;47.540;19.072;2024-03-07T11:54:28;9.55;;;4.97;;
75496;SDS011;64074;47.540;19.072;2024-03-07T11:57:49;11.25;;;6.13;;
75496;SDS011;64074;47.540;19.072;2024-03-07T12:01:11;9.48;;;5.97;;
75496;SDS011;64074;47.540;19.072;2024-03-07T12:04:30;10.70;;;5.70;;
75496;SDS011;64074;47.540;19.072;2024-03-07T12:12:24;9.30;;;5.30;;
75496;SDS011;64074;47.540;19.072;2024-03-07T12:15:38;8.55;;;5.03;;
75496;SDS011;64074;47.540;19.072;2024-03-07T12:19:05;10.25;;;5.72;;
75496;SDS011;64074;47.540;19.072;2024-03-07T12:22:36;11.17;;;5.70;;
75496;SDS011;64074;47.540;19.072;2024-03-07T12:25:47;8.15;;;5.03;;
75496;SDS011;64074;47.540;19.072;2024-03-07T12:29:25;9.52;;;5.53;;
75496;SDS011;64074;47.540;19.072;2024-03-07T12:32:31;9.50;;;5.70;;
75496;SDS011;64074;47.540;19.072;2024-03-07T12:35:39;11.10;;;6.90;;
75496;SDS011;64074;47.540;19.072;2024-03-07T12:38:53;10.27;;;6.20;;
75496;SDS011;64074;47.540;19.072;2024-03-07T12:42:21;10.30;;;5.43;;
75496;SDS011;64074;47.540;19.072;2024-03-07T12:45:49;10.02;;;5.55;;
75496;SDS011;64074;47.540;19.072;2024-03-07T12:49:01;13.15;;;5.53;;
75496;SDS011;64074;47.540;19.072;2024-03-07T12:52:37;10.48;;;5.50;;
75496;SDS011;64074;47.540;19.072;2024-03-07T12:55:54;10.43;;;5.60;;
75496;SDS011;64074;47.540;19.072;2024-03-07T12:59:06;8.75;;;5.30;;
75496;SDS011;64074;47.540;19.072;2024-03-07T13:02:53;10.93;;;5.55;;
75496;SDS011;64074;47.540;19.072;2024-03-07T13:06:47;9.45;;;5.78;;
75496;SDS011;64074;47.540;19.072;2024-03-07T13:10:02;11.30;;;5.50;;
75496;SDS011;64074;47.540;19.072;2024-03-07T13:13:53;9.93;;;5.60;;
75496;SDS011;64074;47.540;19.072;2024-03-07T13:17:37;9.05;;;5.30;;
75496;SDS011;64074;47.540;19.072;2024-03-07T13:21:16;9.63;;;6.10;;
75496;SDS011;64074;47.540;19.072;2024-03-07T13:24:30;10.50;;;6.03;;
75496;SDS011;64074;47.540;19.072;2024-03-07T13:27:43;10.88;;;5.75;;
75496;SDS011;64074;47.540;19.072;2024-03-07T13:31:11;8.77;;;5.43;;
75496;SDS011;64074;47.540;19.072;2024-03-07T13:34:48;10.18;;;6.15;;
75496;SDS011;64074;47.540;19.072;2024-03-07T13:38:13;9.98;;;6.13;;
75496;SDS011;64074;47.540;19.072;2024-03-07T13:41:27;10.73;;;5.70;;
75496;SDS011;64074;47.540;19.072;2024-03-07T13:44:42;9.55;;;5.40;;
75496;SDS011;64074;47.540;19.072;2024-03-07T13:47:54;11.00;;;5.93;;
75496;SDS011;64074;47.540;19.072;2024-03-07T13:51:12;10.13;;;5.60;;
75496;SDS011;64074;47.540;19.072;2024-03-07T13:54:42;10.30;;;5.82;;
75496;SDS011;64074;47.540;19.072;2024-03-07T13:57:56;11.35;;;6.57;;
75496;SDS011;64074;47.540;19.072;2024-03-07T14:27:15;13.15;;;7.22;;
75496;SDS011;64074;47.540;19.072;2024-03-07T14:37:36;10.05;;;6.10;;
75496;SDS011;64074;47.540;19.072;2024-03-07T14:40:44;9.90;;;6.00;;
75496;SDS011;64074;47.540;19.072;2024-03-07T14:43:59;12.88;;;6.00;;
75496;SDS011;64074;47.540;19.072;2024-03-07T14:47:11;10.80;;;5.85;;
75496;SDS011;64074;47.540;19.072;2024-03-07T14:50:24;10.05;;;5.78;;
75496;SDS011;64074;47.540;19.072;2024-03-07T14:53:36;12.73;;;6.40;;
75496;SDS011;64074;47.540;19.072;2024-03-07T14:56:41;11.87;;;5.73;;
75496;SDS011;64074;47.540;19.072;2024-03-07T14:59:52;10.15;;;5.55;;
75496;SDS011;64074;47.540;19.072;2024-03-07T15:03:01;9.85;;;5.63;;
75496;SDS011;64074;47.540;19.072;2024-03-07T15:06:14;10.75;;;5.60;;
75496;SDS011;64074;47.540;19.072;2024-03-07T15:09:17;12.50;;;5.97;;
75496;SDS011;64074;47.540;19.072;2024-03-07T15:12:29;9.90;;;5.67;;
75496;SDS011;64074;47.540;19.072;2024-03-07T15:15:53;9.43;;;5.88;;
75496;SDS011;64074;47.540;19.072;2024-03-07T15:19:13;9.77;;;5.75;;
75496;SDS011;64074;47.540;19.072;2024-03-07T15:22:37;10.65;;;5.90;;
75496;SDS011;64074;47.540;19.072;2024-03-07T15:26:00;10.90;;;6.00;;
75496;SDS011;64074;47.540;19.072;2024-03-07T15:29:22;9.73;;;5.63;;
75496;SDS011;64074;47.540;19.072;2024-03-07T15:32:41;12.25;;;6.15;;
75496;SDS011;64074;47.540;19.072;2024-03-07T15:36:00;9.52;;;5.80;;
75496;SDS011;64074;47.540;19.072;2024-03-07T15:39:32;9.65;;;5.45;;
75496;SDS011;64074;47.540;19.072;2024-03-07T15:42:48;9.80;;;5.97;;
75496;SDS011;64074;47.540;19.072;2024-03-07T15:46:06;11.60;;;5.97;;
75496;SDS011;64074;47.540;19.072;2024-03-07T15:49:28;11.32;;;6.10;;
75496;SDS011;64074;47.540;19.072;2024-03-07T15:52:44;13.52;;;6.90;;
75496;SDS011;64074;47.540;19.072;2024-03-07T15:56:27;12.18;;;7.05;;
75496;SDS011;64074;47.540;19.072;2024-03-07T15:59:41;12.52;;;6.20;;
75496;SDS011;64074;47.540;19.072;2024-03-07T16:03:00;12.87;;;6.80;;
75496;SDS011;64074;47.540;19.072;2024-03-07T16:06:29;13.13;;;6.72;;
75496;SDS011;64074;47.540;19.072;2024-03-07T16:09:39;12.05;;;6.85;;
75496;SDS011;64074;47.540;19.072;2024-03-07T16:12:56;12.82;;;7.20;;
75496;SDS011;64074;47.540;19.072;2024-03-07T16:16:12;13.13;;;6.70;;
75496;SDS011;64074;47.540;19.072;2024-03-07T16:19:28;16.57;;;6.77;;
75496;SDS011;64074;47.540;19.072;2024-03-07T16:22:44;11.23;;;6.97;;
75496;SDS011;64074;47.540;19.072;2024-03-07T16:26:18;11.73;;;6.28;;
75496;SDS011;64074;47.540;19.072;2024-03-07T16:29:45;11.32;;;6.78;;
75496;SDS011;64074;47.540;19.072;2024-03-07T16:33:07;13.00;;;6.88;;
75496;SDS011;64074;47.540;19.072;2024-03-07T16:36:28;11.60;;;7.03;;
75496;SDS011;64074;47.540;19.072;2024-03-07T16:39:40;13.63;;;7.18;;
75496;SDS011;64074;47.540;19.072;2024-03-07T16:43:08;16.20;;;8.95;;
75496;SDS011;64074;47.540;19.072;2024-03-07T16:46:26;15.38;;;7.47;;
75496;SDS011;64074;47.540;19.072;2024-03-07T16:49:49;11.48;;;6.22;;
75496;SDS011;64074;47.540;19.072;2024-03-07T16:53:00;11.63;;;6.20;;
75496;SDS011;64074;47.540;19.072;2024-03-07T16:56:12;11.43;;;6.10;;
75496;SDS011;64074;47.540;19.072;2024-03-07T16:59:17;10.68;;;6.22;;
75496;SDS011;64074;47.540;19.072;2024-03-07T17:02:26;12.15;;;6.05;;
75496;SDS011;64074;47.540;19.072;2024-03-07T17:05:57;10.90;;;5.60;;
75496;SDS011;64074;47.540;19.072;2024-03-07T17:09:10;9.83;;;5.30;;
75496;SDS011;64074;47.540;19.072;2024-03-07T17:12:21;11.23;;;6.03;;
75496;SDS011;64074;47.540;19.072;2024-03-07T17:15:56;11.35;;;6.57;;
75496;SDS011;64074;47.540;19.072;2024-03-07T17:19:24;9.10;;;5.53;;
75496;SDS011;64074;47.540;19.072;2024-03-07T17:22:36;12.52;;;6.85;;
75496;SDS011;64074;47.540;19.072;2024-03-07T17:26:03;12.53;;;6.60;;
75496;SDS011;64074;47.540;19.072;2024-03-07T17:29:28;14.48;;;7.57;;
75496;SDS011;64074;47.540;19.072;2024-03-07T17:32:49;10.80;;;6.00;;
75496;SDS011;64074;47.540;19.072;2024-03-07T17:36:11;12.98;;;7.35;;
75496;SDS011;64074;47.540;19.072;2024-03-07T17:39:39;15.05;;;7.40;;
75496;SDS011;64074;47.540;19.072;2024-03-07T17:42:49;13.47;;;7.47;;
75496;SDS011;64074;47.540;19.072;2024-03-07T17:46:08;15.52;;;8.80;;
75496;SDS011;64074;47.540;19.072;2024-03-07T17:49:18;12.73;;;6.97;;
75496;SDS011;64074;47.540;19.072;2024-03-07T17:52:47;13.32;;;6.35;;
75496;SDS011;64074;47.540;19.072;2024-03-07T17:56:10;12.93;;;6.97;;
75496;SDS011;64074;47.540;19.072;2024-03-07T17:59:27;13.40;;;7.20;;
75496;SDS011;64074;47.540;19.072;2024-03-07T18:02:55;13.93;;;7.00;;
75496;SDS011;64074;47.540;19.072;2024-03-07T18:06:06;14.48;;;7.18;;
75496;SDS011;64074;47.540;19.072;2024-03-07T18:09:24;14.18;;;7.65;;
75496;SDS011;64074;47.540;19.072;2024-03-07T18:12:37;16.35;;;8.15;;
75496;SDS011;64074;47.540;19.072;2024-03-07T18:15:42;14.73;;;8.20;;
75496;SDS011;64074;47.540;19.072;2024-03-07T18:18:52;14.77;;;8.15;;
75496;SDS011;64074;47.540;19.072;2024-03-07T18:22:12;16.40;;;9.13;;
75496;SDS011;64074;47.540;19.072;2024-03-07T18:26:07;17.25;;;8.48;;
75496;SDS011;64074;47.540;19.072;2024-03-07T18:29:42;15.45;;;7.72;;
75496;SDS011;64074;47.540;19.072;2024-03-07T18:33:04;15.50;;;8.17;;
75496;SDS011;64074;47.540;19.072;2024-03-07T18:36:18;16.63;;;7.88;;
75496;SDS011;64074;47.540;19.072;2024-03-07T18:39:49;14.38;;;7.88;;
75496;SDS011;64074;47.540;19.072;2024-03-07T18:43:07;14.30;;;7.60;;
75496;SDS011;64074;47.540;19.072;2024-03-07T18:46:27;14.20;;;7.63;;
75496;SDS011;64074;47.540;19.072;2024-03-07T18:49:39;14.83;;;7.37;;
75496;SDS011;64074;47.540;19.072;2024-03-07T18:52:50;15.60;;;7.20;;
75496;SDS011;64074;47.540;19.072;2024-03-07T18:56:01;18.02;;;8.23;;
75496;SDS011;64074;47.540;19.072;2024-03-07T18:59:23;12.15;;;6.75;;
75496;SDS011;64074;47.540;19.072;2024-03-07T19:02:27;11.80;;;6.15;;
75496;SDS011;64074;47.540;19.072;2024-03-07T19:05:39;12.37;;;6.50;;
75496;SDS011;64074;47.540;19.072;2024-03-07T19:08:59;13.00;;;6.70;;
75496;SDS011;64074;47.540;19.072;2024-03-07T19:12:34;12.55;;;6.82;;
75496;SDS011;64074;47.540;19.072;2024-03-07T19:16:05;13.55;;;6.85;;
75496;SDS011;64074;47.540;19.072;2024-03-07T19:19:27;15.80;;;7.30;;
75496;SDS011;64074;47.540;19.072;2024-03-07T19:22:50;13.37;;;6.80;;
75496;SDS011;64074;47.540;19.072;2024-03-07T19:26:11;13.73;;;6.90;;
75496;SDS011;64074;47.540;19.072;2024-03-07T19:29:34;13.38;;;7.25;;
75496;SDS011;64074;47.540;19.072;2024-03-07T19:32:56;13.32;;;6.93;;
75496;SDS011;64074;47.540;19.072;2024-03-07T19:36:18;17.35;;;8.00;;
75496;SDS011;64074;47.540;19.072;2024-03-07T19:39:33;16.13;;;7.47;;
75496;SDS011;64074;47.540;19.072;2024-03-07T19:42:43;15.43;;;7.05;;
75496;SDS011;64074;47.540;19.072;2024-03-07T19:45:47;15.90;;;7.63;;
75496;SDS011;64074;47.540;19.072;2024-03-07T19:48:54;15.75;;;7.80;;
75496;SDS011;64074;47.540;19.072;2024-03-07T19:52:01;16.60;;;7.95;;
75496;SDS011;64074;47.540;19.072;2024-03-07T19:55:19;16.17;;;8.07;;
75496;SDS011;64074;47.540;19.072;2024-03-07T19:58:27;15.25;;;8.18;;
75496;SDS011;64074;47.540;19.072;2024-03-07T20:01:32;16.35;;;8.18;;
75496;SDS011;64074;47.540;19.072;2024-03-07T20:04:42;16.90;;;8.10;;
75496;SDS011;64074;47.540;19.072;2024-03-07T20:07:52;18.25;;;8.90;;
75496;SDS011;64074;47.540;19.072;2024-03-07T20:11:07;17.20;;;8.30;;
75496;SDS011;64074;47.540;19.072;2024-03-07T20:14:11;15.35;;;8.35;;